Time;durP1;ratioP1;P1;durP2;ratioP2;P2;SDS_P1;SDS_P2;PMS_P1;PMS_P2;Temp;Humidity;BMP_temperature;BMP_pressure;BME280_temperature;BME280_humidity;BME280_pressure;Samples;Min_cycle;Max_cycle;Signal;HPM_P1;HPM_P2
2023/09/24 00:01:13;;;;;;;1.67;1.15;;;18.30;95.30;;;;;;10494183;28;20433;-69
2023/09/24 00:06:14;;;;;;;1.57;1.10;;;18.30;95.50;;;;;;10496185;28;21075;-69
2023/09/24 00:11:15;;;;;;;1.60;1.07;;;18.30;95.30;;;;;;10493107;28;20461;-68
2023/09/24 00:16:16;;;;;;;2.75;1.10;;;18.30;95.30;;;;;;10484135;28;20426;-67
2023/09/24 00:21:17;;;;;;;2.13;1.10;;;18.20;95.20;;;;;;10492769;28;20967;-69
2023/09/24 00:26:18;;;;;;;1.63;1.13;;;18.20;95.20;;;;;;10486488;28;20511;-67
2023/09/24 00:31:19;;;;;;;3.17;1.20;;;18.20;95.20;;;;;;10488347;28;20398;-69
2023/09/24 00:36:20;;;;;;;1.80;1.37;;;18.20;95.20;;;;;;10494755;28;20410;-68
2023/09/24 00:41:20;;;;;;;2.63;1.50;;;18.20;95.20;;;;;;10497944;28;20488;-69
2023/09/24 00:46:21;;;;;;;1.97;1.30;;;18.10;95.10;;;;;;10485255;28;20405;-68
2023/09/24 00:51:26;;;;;;;2.50;1.45;;;18.10;95.10;;;;;;10493435;28;20398;-69
2023/09/24 00:56:27;;;;;;;2.08;1.58;;;18.10;95.10;;;;;;10493334;28;20966;-66
2023/09/24 01:01:29;;;;;;;2.03;1.50;;;18.10;95.10;;;;;;10506170;28;20472;-66
2023/09/24 01:06:31;;;;;;;1.80;1.60;;;18.10;95.10;;;;;;10499509;28;20431;-69
2023/09/24 01:11:33;;;;;;;3.13;1.58;;;18.10;95.10;;;;;;10503806;28;20401;-67
2023/09/24 01:16:33;;;;;;;2.50;1.60;;;18.00;95.00;;;;;;10498604;28;20396;-69
2023/09/24 01:21:36;;;;;;;2.30;1.60;;;18.00;95.00;;;;;;10499722;28;20919;-69
2023/09/24 01:26:38;;;;;;;2.25;1.60;;;18.00;95.00;;;;;;10498624;28;20409;-69
2023/09/24 01:31:38;;;;;;;1.77;1.50;;;18.00;94.90;;;;;;10496176;28;20391;-67
2023/09/24 01:36:39;;;;;;;2.20;1.90;;;18.00;94.90;;;;;;10504666;28;20805;-69
2023/09/24 01:41:40;;;;;;;2.93;1.80;;;17.90;94.90;;;;;;10505149;28;20394;-69
2023/09/24 01:46:40;;;;;;;2.83;1.90;;;17.90;94.80;;;;;;10496739;28;21485;-69
2023/09/24 01:51:41;;;;;;;2.63;1.60;;;17.90;94.80;;;;;;10501380;28;20461;-69
2023/09/24 01:56:42;;;;;;;2.00;1.60;;;17.90;94.80;;;;;;10510165;28;20434;-66
2023/09/24 02:01:44;;;;;;;2.78;1.55;;;17.80;94.70;;;;;;10508047;28;20409;-68
2023/09/24 02:06:45;;;;;;;2.35;1.58;;;17.90;94.70;;;;;;10500347;28;20821;-68
2023/09/24 02:11:46;;;;;;;2.43;1.70;;;17.80;94.70;;;;;;10498889;28;20401;-69
2023/09/24 02:16:46;;;;;;;2.60;1.87;;;17.80;94.60;;;;;;10490652;28;20403;-68
2023/09/24 02:21:47;;;;;;;2.00;1.60;;;17.80;94.60;;;;;;10500163;28;20404;-68
2023/09/24 02:26:48;;;;;;;3.40;1.60;;;17.80;94.60;;;;;;10500323;28;20536;-69
2023/09/24 02:31:52;;;;;;;2.00;1.65;;;17.80;94.50;;;;;;10499953;28;20702;-69
2023/09/24 02:36:54;;;;;;;1.40;1.30;;;17.70;94.50;;;;;;10503609;28;20457;-68
2023/09/24 02:41:55;;;;;;;2.27;1.60;;;17.70;94.40;;;;;;10503866;28;20399;-68
2023/09/24 02:46:56;;;;;;;2.33;1.70;;;17.70;94.40;;;;;;10494151;28;20911;-68
2023/09/24 02:51:56;;;;;;;3.90;1.63;;;17.70;94.60;;;;;;10496468;28;20394;-69
2023/09/24 02:56:58;;;;;;;2.27;1.57;;;17.60;94.30;;;;;;10512057;28;20391;-69
2023/09/24 03:01:58;;;;;;;2.45;1.63;;;17.60;94.30;;;;;;10497640;28;20405;-68
2023/09/24 03:06:59;;;;;;;1.97;1.60;;;17.60;94.20;;;;;;10505639;28;20407;-69
2023/09/24 03:12:00;;;;;;;3.07;1.77;;;17.60;94.20;;;;;;10509166;28;20387;-69
2023/09/24 03:17:00;;;;;;;2.60;1.87;;;17.60;94.20;;;;;;10488726;28;20591;-68
2023/09/24 03:22:01;;;;;;;2.03;1.70;;;17.60;94.20;;;;;;10504488;28;20553;-69
2023/09/24 03:27:01;;;;;;;3.70;1.92;;;17.50;94.10;;;;;;10500472;28;20408;-69
2023/09/24 03:32:02;;;;;;;3.10;1.80;;;17.50;94.10;;;;;;10503025;28;20395;-68
2023/09/24 03:37:03;;;;;;;2.88;1.80;;;17.40;94.30;;;;;;10503602;28;20581;-69
2023/09/24 03:42:04;;;;;;;2.70;1.80;;;17.50;94.10;;;;;;10505093;28;20529;-68
2023/09/24 03:47:04;;;;;;;5.25;1.90;;;17.50;94.00;;;;;;10492435;28;20887;-69
2023/09/24 03:52:05;;;;;;;2.53;1.95;;;18.20;94.20;;;;;;10502829;28;20442;-68
2023/09/24 03:57:06;;;;;;;2.30;1.90;;;17.40;93.90;;;;;;10504980;28;20401;-68
2023/09/24 04:02:08;;;;;;;2.33;1.70;;;17.40;93.90;;;;;;10502681;28;20405;-68
2023/09/24 04:07:09;;;;;;;2.88;1.80;;;17.40;93.90;;;;;;10497022;28;20841;-69
2023/09/24 04:12:10;;;;;;;2.77;2.20;;;17.40;93.90;;;;;;10499279;28;20439;-68
2023/09/24 04:17:14;;;;;;;4.13;2.13;;;17.30;93.80;;;;;;10491463;28;20397;-69
2023/09/24 04:22:15;;;;;;;2.97;2.00;;;17.30;93.80;;;;;;10490838;28;20410;-69
2023/09/24 04:27:16;;;;;;;2.60;1.95;;;17.30;93.80;;;;;;10486437;28;20411;-69
2023/09/24 04:32:16;;;;;;;2.97;2.20;;;17.30;93.80;;;;;;10484109;28;20411;-68
2023/09/24 04:37:17;;;;;;;2.67;1.90;;;17.30;93.70;;;;;;10495423;28;20406;-66
2023/09/24 04:42:18;;;;;;;2.92;1.90;;;17.20;93.70;;;;;;10491579;28;20456;-69
2023/09/24 04:47:18;;;;;;;4.60;2.30;;;17.20;93.70;;;;;;10491004;28;20825;-69
2023/09/24 04:52:19;;;;;;;3.43;2.13;;;17.20;93.70;;;;;;10492674;28;21093;-67
2023/09/24 04:57:20;;;;;;;3.33;2.10;;;17.20;93.60;;;;;;10493061;28;20482;-69
2023/09/24 05:02:21;;;;;;;3.85;2.10;;;17.20;93.60;;;;;;10500655;28;20429;-69
2023/09/24 05:07:21;;;;;;;4.25;2.40;;;17.10;93.50;;;;;;10487277;28;20410;-68
2023/09/24 05:12:23;;;;;;;4.00;2.60;;;17.10;93.50;;;;;;10485350;28;20921;-69
2023/09/24 05:17:23;;;;;;;4.28;2.40;;;17.10;93.50;;;;;;10492175;28;20630;-67
2023/09/24 05:22:27;;;;;;;3.60;2.47;;;17.10;93.50;;;;;;10491184;28;20400;-67
2023/09/24 05:27:30;;;;;;;3.28;2.50;;;17.10;93.40;;;;;;10486730;28;21067;-68
2023/09/24 05:32:33;;;;;;;3.92;2.45;;;17.10;93.40;;;;;;10496569;28;21710;-68
2023/09/24 05:37:33;;;;;;;3.67;2.53;;;17.00;93.40;;;;;;10489300;28;20694;-68
2023/09/24 05:42:34;;;;;;;4.03;2.60;;;17.00;93.40;;;;;;10492634;28;20390;-67
2023/09/24 05:47:35;;;;;;;4.82;3.55;;;17.00;93.30;;;;;;10500071;28;20403;-68
2023/09/24 05:52:35;;;;;;;3.63;2.70;;;17.00;93.30;;;;;;10492598;28;20809;-68
2023/09/24 05:57:36;;;;;;;3.77;2.50;;;17.00;93.30;;;;;;10491800;28;20394;-69
2023/09/24 06:02:37;;;;;;;3.33;2.47;;;17.00;93.30;;;;;;10476435;28;20493;-69
2023/09/24 06:07:37;;;;;;;4.50;2.73;;;17.00;93.20;;;;;;10494881;28;20583;-68
2023/09/24 06:12:38;;;;;;;3.97;2.70;;;17.00;93.20;;;;;;10493658;28;20455;-69
2023/09/24 06:17:39;;;;;;;4.00;2.58;;;17.00;93.20;;;;;;10494169;28;20410;-68
2023/09/24 06:22:40;;;;;;;6.33;2.93;;;16.90;93.20;;;;;;10492869;28;20981;-69
2023/09/24 06:27:40;;;;;;;3.33;2.50;;;16.90;93.20;;;;;;10494459;28;20398;-68
2023/09/24 06:32:41;;;;;;;4.90;2.75;;;16.90;93.10;;;;;;10490024;28;20968;-69
2023/09/24 06:37:42;;;;;;;4.57;2.87;;;16.90;93.10;;;;;;10485310;28;20913;-69
2023/09/24 06:42:42;;;;;;;4.50;2.90;;;16.90;93.10;;;;;;10488129;28;20398;-68
2023/09/24 06:47:43;;;;;;;3.90;2.93;;;16.90;93.10;;;;;;10489605;28;20502;-68
2023/09/24 06:52:43;;;;;;;4.73;2.83;;;16.90;93.10;;;;;;10500499;28;20388;-69
2023/09/24 06:57:44;;;;;;;3.83;2.72;;;16.90;93.00;;;;;;10495768;28;20448;-69
2023/09/24 07:02:45;;;;;;;4.45;2.92;;;16.90;93.00;;;;;;10503345;28;20489;-68
2023/09/24 07:07:45;;;;;;;4.70;2.90;;;16.90;93.00;;;;;;10492183;28;20921;-68
2023/09/24 07:12:46;;;;;;;4.33;2.50;;;16.90;93.00;;;;;;10490303;28;20388;-68
2023/09/24 07:17:47;;;;;;;4.63;2.90;;;17.00;93.00;;;;;;10495174;28;20402;-69
2023/09/24 07:22:48;;;;;;;5.00;3.00;;;17.00;93.00;;;;;;10492883;28;21486;-68
2023/09/24 07:27:48;;;;;;;4.20;2.50;;;17.00;93.00;;;;;;10499851;28;20767;-69
2023/09/24 07:32:50;;;;;;;4.37;3.13;;;17.00;93.00;;;;;;10489000;28;20395;-69
2023/09/24 07:37:50;;;;;;;4.47;2.80;;;17.00;93.00;;;;;;10492976;28;20413;-68
2023/09/24 07:42:51;;;;;;;5.10;2.77;;;17.10;93.10;;;;;;10500215;28;20408;-69
2023/09/24 07:47:51;;;;;;;3.93;2.73;;;17.10;93.10;;;;;;10492395;28;20941;-67
2023/09/24 07:52:52;;;;;;;4.93;2.70;;;17.20;93.10;;;;;;10498273;28;20375;-69
2023/09/24 07:57:53;;;;;;;4.13;2.80;;;17.30;93.10;;;;;;10501191;28;20861;-67
2023/09/24 08:02:54;;;;;;;3.63;2.47;;;17.30;93.10;;;;;;10500168;28;20768;-68
2023/09/24 08:07:56;;;;;;;4.43;2.60;;;17.40;93.10;;;;;;10500244;28;20413;-67
2023/09/24 08:12:56;;;;;;;6.15;2.80;;;17.40;93.10;;;;;;10501089;28;20932;-69
2023/09/24 08:17:57;;;;;;;3.90;2.63;;;17.50;93.10;;;;;;10500688;28;20409;-68
2023/09/24 08:22:58;;;;;;;5.77;2.60;;;17.50;93.00;;;;;;10492255;28;20499;-68
2023/09/24 08:27:59;;;;;;;4.22;2.30;;;17.50;93.30;;;;;;10491734;28;20458;-68
2023/09/24 08:32:59;;;;;;;4.00;2.30;;;17.60;93.20;;;;;;10500617;28;20408;-68
2023/09/24 08:38:00;;;;;;;4.47;2.53;;;17.60;93.50;;;;;;10507410;28;20397;-67
2023/09/24 08:43:09;;;;;;;5.32;2.50;;;17.60;93.20;;;;;;10508297;28;20403;-68
2023/09/24 08:48:11;;;;;;;3.70;2.50;;;17.60;93.10;;;;;;10511326;28;20403;-68
2023/09/24 08:53:13;;;;;;;4.20;2.38;;;17.60;93.10;;;;;;10502040;28;20448;-69
2023/09/24 08:58:13;;;;;;;2.78;2.33;;;17.60;93.10;;;;;;10509400;28;20910;-68
2023/09/24 09:03:14;;;;;;;4.43;2.40;;;17.70;93.10;;;;;;10508532;28;20402;-68
2023/09/24 09:08:14;;;;;;;4.00;2.40;;;17.70;93.10;;;;;;10508598;28;20452;-67
2023/09/24 09:13:20;;;;;;;5.77;2.23;;;17.70;93.10;;;;;;10504156;28;20382;-66
2023/09/24 09:18:24;;;;;;;3.75;2.40;;;17.70;93.10;;;;;;10496136;28;20813;-66
2023/09/24 09:23:31;;;;;;;3.78;2.38;;;17.80;93.20;;;;;;10507176;28;20465;-74
2023/09/24 09:28:34;;;;;;;6.15;2.35;;;17.80;93.10;;;;;;10488616;28;20457;-69
2023/09/24 09:33:39;;;;;;;4.28;2.60;;;17.80;93.20;;;;;;10490027;28;20419;-70
2023/09/24 09:38:40;;;;;;;5.40;2.58;;;17.90;93.20;;;;;;10494887;28;20920;-68
2023/09/24 09:43:42;;;;;;;4.25;2.50;;;17.90;93.30;;;;;;10495558;28;20398;-69
2023/09/24 09:48:54;;;;;;;4.25;2.72;;;18.00;93.20;;;;;;10501058;28;20491;-68
2023/09/24 09:54:06;;;;;;;4.43;2.10;;;18.00;93.20;;;;;;10497703;28;20395;-68
2023/09/24 09:59:08;;;;;;;4.68;2.08;;;18.10;93.20;;;;;;10495968;28;20483;-69
2023/09/24 10:04:09;;;;;;;3.53;2.17;;;18.10;93.10;;;;;;10496319;28;20408;-67
2023/09/24 10:09:31;;;;;;;3.30;2.00;;;18.20;93.00;;;;;;10489010;28;20409;-71
2023/09/24 10:14:36;;;;;;;3.73;1.93;;;18.30;92.90;;;;;;10485190;28;20408;-70
2023/09/24 10:19:59;;;;;;;3.97;2.00;;;18.30;92.80;;;;;;10492655;28;20414;-67
2023/09/24 10:25:20;;;;;;;4.03;2.15;;;18.40;92.80;;;;;;10492733;28;20396;-67
2023/09/24 10:30:21;;;;;;;3.93;1.80;;;18.40;92.70;;;;;;10493502;28;20585;-68
2023/09/24 10:35:22;;;;;;;4.20;1.70;;;18.40;92.70;;;;;;10492379;28;20849;-68
2023/09/24 10:40:26;;;;;;;3.50;1.92;;;18.50;92.70;;;;;;10493533;28;20503;-67
2023/09/24 10:45:27;;;;;;;3.55;1.67;;;18.50;92.60;;;;;;10491448;28;20418;-68
2023/09/24 10:50:28;;;;;;;3.08;1.60;;;18.60;92.50;;;;;;10495425;28;20398;-68
2023/09/24 10:55:34;;;;;;;4.77;1.90;;;18.80;92.50;;;;;;10497257;28;20480;-70
2023/09/24 11:00:35;;;;;;;3.07;1.50;;;18.70;91.50;;;;;;10497738;28;20507;-70
2023/09/24 11:05:45;;;;;;;4.05;1.80;;;18.60;91.00;;;;;;10497906;28;20395;-70
2023/09/24 11:10:49;;;;;;;5.40;1.40;;;18.60;91.20;;;;;;10492289;28;20425;-70
2023/09/24 11:15:50;;;;;;;4.65;1.50;;;18.60;91.00;;;;;;10493789;28;20411;-70
2023/09/24 11:20:52;;;;;;;3.15;1.25;;;18.70;91.20;;;;;;10498171;28;20846;-70
2023/09/24 11:25:52;;;;;;;4.97;1.30;;;18.70;91.00;;;;;;10493102;28;20475;-70
2023/09/24 11:30:53;;;;;;;3.27;1.37;;;18.70;90.60;;;;;;10480233;28;20972;-69
2023/09/24 11:35:55;;;;;;;3.67;1.50;;;18.80;90.30;;;;;;10495798;28;20928;-68
2023/09/24 11:41:09;;;;;;;5.78;1.63;;;18.80;90.40;;;;;;10489693;28;20461;-69
2023/09/24 11:46:32;;;;;;;3.47;1.50;;;18.90;90.40;;;;;;10483929;28;20878;-69
2023/09/24 11:51:33;;;;;;;4.07;1.20;;;19.00;90.70;;;;;;10486639;28;20403;-72
2023/09/24 11:56:33;;;;;;;4.25;1.40;;;19.10;90.90;;;;;;10501166;28;20402;-71
2023/09/24 12:01:34;;;;;;;3.70;1.23;;;19.20;90.20;;;;;;10494314;28;20720;-70
2023/09/24 12:06:35;;;;;;;3.88;1.40;;;19.20;90.40;;;;;;10495515;28;20535;-70
2023/09/24 12:11:36;;;;;;;3.30;1.20;;;19.30;90.30;;;;;;10490759;28;20405;-67
2023/09/24 12:16:36;;;;;;;3.00;1.27;;;19.30;89.70;;;;;;10497220;28;20423;-68
2023/09/24 12:21:37;;;;;;;7.27;1.47;;;19.30;89.50;;;;;;10492454;28;20409;-68
2023/09/24 12:26:37;;;;;;;3.50;1.40;;;19.30;89.20;;;;;;10487046;28;20436;-69
2023/09/24 12:31:38;;;;;;;4.35;1.42;;;19.30;90.30;;;;;;10498903;28;20407;-68
2023/09/24 12:36:39;;;;;;;3.83;1.23;;;19.20;89.70;;;;;;10499947;28;20508;-69
2023/09/24 12:41:39;;;;;;;5.53;1.50;;;19.40;89.70;;;;;;10501881;28;20407;-69
2023/09/24 12:46:40;;;;;;;2.78;1.20;;;19.50;88.30;;;;;;10490969;28;20408;-68
2023/09/24 12:51:40;;;;;;;3.35;1.42;;;19.60;88.60;;;;;;10500165;28;20417;-69
2023/09/24 12:56:41;;;;;;;4.80;1.45;;;19.70;87.90;;;;;;10511958;28;20532;-69
2023/09/24 13:01:43;;;;;;;4.93;1.43;;;19.80;87.90;;;;;;10512845;28;20403;-71
2023/09/24 13:06:44;;;;;;;3.97;1.40;;;19.90;87.30;;;;;;10504912;28;20406;-70
2023/09/24 13:11:48;;;;;;;3.45;1.45;;;20.00;87.70;;;;;;10499918;28;20407;-68
2023/09/24 13:16:49;;;;;;;3.10;1.20;;;20.00;86.70;;;;;;10495165;28;20406;-67
2023/09/24 13:21:50;;;;;;;5.03;1.50;;;20.10;86.70;;;;;;10498904;28;20925;-68
2023/09/24 13:26:50;;;;;;;2.85;1.20;;;20.20;86.60;;;;;;10496565;28;20834;-69
2023/09/24 13:31:51;;;;;;;3.22;1.40;;;20.20;87.40;;;;;;10500072;28;20397;-68
2023/09/24 13:36:52;;;;;;;3.55;1.20;;;20.30;86.00;;;;;;10484083;28;20421;-68
2023/09/24 13:41:52;;;;;;;4.95;1.38;;;20.50;84.50;;;;;;10503511;28;20402;-68
2023/09/24 13:46:53;;;;;;;4.90;1.30;;;20.60;84.90;;;;;;10491892;28;20414;-68
2023/09/24 13:51:53;;;;;;;4.27;1.20;;;20.50;84.70;;;;;;10493594;28;20758;-68
2023/09/24 13:56:54;;;;;;;5.80;1.30;;;20.90;84.20;;;;;;10508316;28;20736;-69
2023/09/24 14:01:55;;;;;;;3.83;1.47;;;21.00;82.90;;;;;;10508135;28;20447;-69
2023/09/24 14:06:55;;;;;;;5.43;1.60;;;21.10;82.60;;;;;;10495631;28;20410;-68
2023/09/24 14:17:15;;;;;;;4.80;1.40;;;21.20;82.40;;;;;;10494915;28;20410;-67
2023/09/24 14:22:16;;;;;;;3.70;1.40;;;21.30;82.80;;;;;;10489769;28;20405;-68
2023/09/24 14:27:16;;;;;;;3.10;1.17;;;21.30;82.30;;;;;;10501501;28;20446;-68
2023/09/24 14:32:17;;;;;;;3.80;1.20;;;21.30;81.70;;;;;;10500800;28;20446;-69
2023/09/24 14:37:18;;;;;;;3.93;1.30;;;21.50;81.30;;;;;;10478059;28;20477;-68
2023/09/24 14:42:18;;;;;;;4.67;1.27;;;21.40;80.50;;;;;;10473064;28;20766;-68
2023/09/24 14:47:19;;;;;;;3.10;1.30;;;21.40;79.70;;;;;;10482426;28;20455;-68
2023/09/24 14:52:19;;;;;;;2.97;1.17;;;21.50;80.00;;;;;;10484982;28;20407;-68
2023/09/24 14:57:21;;;;;;;3.60;1.10;;;21.40;79.70;;;;;;10483032;28;20404;-71
2023/09/24 15:02:21;;;;;;;3.50;1.30;;;21.40;79.90;;;;;;10479465;28;20478;-72
2023/09/24 15:07:22;;;;;;;3.55;1.10;;;21.40;79.10;;;;;;10486674;28;20453;-72
2023/09/24 15:12:23;;;;;;;6.67;1.70;;;21.10;78.60;;;;;;10489707;28;20473;-72
2023/09/24 15:17:24;;;;;;;4.97;1.50;;;20.80;79.90;;;;;;10488138;28;20620;-76
2023/09/24 15:22:24;;;;;;;6.10;1.77;;;20.60;80.90;;;;;;10486654;28;20403;-71
2023/09/24 15:27:26;;;;;;;5.00;1.40;;;20.50;81.50;;;;;;10477269;28;20534;-71
2023/09/24 15:32:27;;;;;;;4.72;1.48;;;20.40;81.40;;;;;;10483414;28;20935;-71
2023/09/24 15:37:28;;;;;;;3.38;1.27;;;20.30;82.20;;;;;;10489844;28;20411;-71
2023/09/24 15:42:28;;;;;;;4.28;1.38;;;20.20;82.50;;;;;;10483458;28;20435;-73
2023/09/24 15:47:30;;;;;;;4.23;1.30;;;20.20;83.20;;;;;;10488575;28;20923;-69
2023/09/24 15:52:31;;;;;;;6.35;1.50;;;20.10;83.90;;;;;;10493611;28;20407;-69
2023/09/24 15:57:34;;;;;;;3.20;1.40;;;20.20;84.40;;;;;;10494536;28;20395;-69
2023/09/24 16:02:35;;;;;;;3.90;1.50;;;20.30;84.50;;;;;;10496258;28;20452;-70
2023/09/24 16:07:37;;;;;;;4.20;1.30;;;20.40;84.50;;;;;;10497202;28;20429;-69
2023/09/24 16:12:37;;;;;;;3.13;1.27;;;20.50;84.70;;;;;;10493766;28;20456;-74
2023/09/24 16:17:38;;;;;;;3.70;1.70;;;20.60;85.30;;;;;;10486157;28;20463;-67
2023/09/24 16:22:39;;;;;;;5.37;1.50;;;20.50;85.80;;;;;;10489846;28;20447;-68
2023/09/24 16:27:40;;;;;;;4.72;1.40;;;20.50;86.10;;;;;;10496128;28;20845;-68
2023/09/24 16:32:41;;;;;;;4.20;1.40;;;20.50;85.90;;;;;;10498377;28;20539;-68
2023/09/24 16:37:44;;;;;;;4.00;1.60;;;20.50;86.10;;;;;;10498228;28;20415;-68
2023/09/24 16:42:49;;;;;;;4.13;1.38;;;20.40;86.20;;;;;;10499171;28;20407;-67
2023/09/24 16:47:51;;;;;;;3.30;1.40;;;20.50;86.50;;;;;;10495055;28;20429;-68
2023/09/24 16:52:52;;;;;;;3.53;1.30;;;20.50;86.70;;;;;;10495630;28;20504;-68
2023/09/24 16:57:52;;;;;;;2.30;1.30;;;20.50;86.90;;;;;;10498611;28;20524;-68
2023/09/24 17:02:53;;;;;;;4.80;1.30;;;20.50;86.90;;;;;;10495655;28;20415;-68
2023/09/24 17:07:56;;;;;;;2.20;1.20;;;20.50;87.10;;;;;;10495669;28;20462;-68
2023/09/24 17:12:57;;;;;;;3.20;1.40;;;20.50;87.20;;;;;;10497340;28;20926;-67
2023/09/24 17:17:58;;;;;;;2.03;1.10;;;20.40;87.20;;;;;;10505410;28;20406;-68
2023/09/24 17:22:58;;;;;;;3.37;1.47;;;20.40;87.50;;;;;;10485919;28;20905;-68
2023/09/24 17:28:00;;;;;;;3.77;1.40;;;20.40;87.70;;;;;;10498904;28;20407;-68
2023/09/24 17:33:02;;;;;;;2.28;1.40;;;20.40;87.80;;;;;;10505217;28;20797;-67
2023/09/24 17:38:03;;;;;;;3.20;1.48;;;20.40;87.90;;;;;;10496524;28;20406;-68
2023/09/24 17:43:03;;;;;;;7.88;1.60;;;20.30;88.10;;;;;;10492398;28;20404;-68
2023/09/24 17:48:06;;;;;;;2.80;1.47;;;20.30;88.20;;;;;;10492470;28;20446;-68
2023/09/24 17:53:06;;;;;;;2.50;1.42;;;20.20;88.20;;;;;;10505182;28;20395;-68
2023/09/24 17:58:07;;;;;;;3.17;1.50;;;20.20;88.20;;;;;;10504475;28;20394;-67
2023/09/24 18:03:08;;;;;;;2.70;1.40;;;20.20;88.20;;;;;;10496842;28;20397;-68
2023/09/24 18:08:08;;;;;;;4.23;1.40;;;20.10;88.20;;;;;;10503945;28;20413;-70
2023/09/24 18:13:09;;;;;;;2.67;1.50;;;20.10;88.20;;;;;;10497344;28;20882;-68
2023/09/24 18:18:09;;;;;;;2.80;1.27;;;20.10;88.20;;;;;;10495802;28;20397;-68
2023/09/24 18:23:10;;;;;;;3.47;1.20;;;20.00;88.20;;;;;;10497269;28;20394;-68
2023/09/24 18:28:11;;;;;;;2.80;1.47;;;20.10;88.10;;;;;;10494841;28;20742;-68
2023/09/24 18:33:15;;;;;;;2.27;1.23;;;20.00;87.90;;;;;;10500220;28;20424;-68
2023/09/24 18:38:15;;;;;;;2.30;1.40;;;20.00;88.00;;;;;;10483288;28;20766;-68
2023/09/24 18:43:16;;;;;;;3.65;1.60;;;20.00;88.10;;;;;;10471797;28;20466;-68
2023/09/24 18:48:17;;;;;;;1.73;1.15;;;19.90;87.90;;;;;;10491866;28;20412;-68
2023/09/24 18:53:18;;;;;;;3.03;1.42;;;19.90;87.90;;;;;;10495929;28;20392;-67
2023/09/24 18:58:18;;;;;;;2.13;1.50;;;19.80;87.90;;;;;;10493544;28;20391;-68
2023/09/24 19:03:19;;;;;;;2.63;1.50;;;19.80;87.70;;;;;;10497357;28;20446;-68
2023/09/24 19:08:23;;;;;;;2.55;1.60;;;19.80;87.90;;;;;;10489538;28;20924;-67
2023/09/24 19:13:28;;;;;;;2.77;1.37;;;19.80;87.70;;;;;;10489707;28;20415;-69
2023/09/24 19:18:29;;;;;;;2.70;1.58;;;19.70;87.80;;;;;;10482869;28;20891;-68
2023/09/24 19:23:32;;;;;;;2.80;1.60;;;19.70;87.70;;;;;;10484933;28;20399;-68
2023/09/24 19:28:32;;;;;;;2.13;1.50;;;19.70;87.80;;;;;;10491476;28;20407;-67
2023/09/24 19:33:36;;;;;;;2.35;1.50;;;19.70;87.70;;;;;;10499195;28;20401;-68
2023/09/24 19:38:36;;;;;;;2.63;1.40;;;19.60;87.80;;;;;;10493599;28;20403;-68
2023/09/24 19:43:37;;;;;;;2.43;1.47;;;19.60;87.80;;;;;;10506255;28;20775;-69
2023/09/24 19:48:39;;;;;;;2.50;1.40;;;19.50;87.70;;;;;;10498958;28;20449;-68
2023/09/24 19:53:40;;;;;;;2.05;1.30;;;19.50;87.80;;;;;;10503767;28;20398;-68
2023/09/24 19:58:41;;;;;;;3.33;1.87;;;19.50;87.80;;;;;;10495744;28;20473;-68
2023/09/24 20:03:42;;;;;;;3.43;1.57;;;19.50;87.70;;;;;;10506736;28;20811;-67
2023/09/24 20:08:47;;;;;;;2.17;1.20;;;19.50;87.70;;;;;;10503117;28;20916;-67
2023/09/24 20:13:54;;;;;;;2.40;1.40;;;19.40;87.60;;;;;;10501198;28;20408;-68
2023/09/24 20:18:54;;;;;;;2.33;1.50;;;19.40;87.60;;;;;;10490898;28;20430;-68
2023/09/24 20:23:55;;;;;;;2.33;1.53;;;19.40;87.50;;;;;;10484594;28;20486;-68
2023/09/24 20:28:56;;;;;;;3.20;1.50;;;19.40;87.50;;;;;;10482363;28;20449;-66
2023/09/24 20:33:56;;;;;;;2.83;1.70;;;19.30;87.40;;;;;;10486645;28;20762;-68
2023/09/24 20:38:58;;;;;;;3.10;1.60;;;19.30;87.40;;;;;;10489634;28;20401;-68
2023/09/24 20:43:59;;;;;;;3.42;1.60;;;19.30;87.30;;;;;;10489654;28;20907;-69
2023/09/24 20:49:00;;;;;;;3.25;1.83;;;19.30;87.30;;;;;;10496023;28;20502;-68
2023/09/24 20:54:01;;;;;;;3.63;1.70;;;19.20;87.20;;;;;;10498536;28;20958;-68
2023/09/24 20:59:08;;;;;;;3.83;1.70;;;19.20;87.20;;;;;;10491899;28;20453;-68
2023/09/24 21:04:09;;;;;;;2.55;1.80;;;19.20;87.10;;;;;;10499577;28;20402;-68
2023/09/24 21:09:09;;;;;;;3.20;1.90;;;19.10;87.00;;;;;;10491975;28;20397;-68
2023/09/24 21:14:10;;;;;;;3.37;1.97;;;19.10;87.00;;;;;;10493462;28;20407;-68
2023/09/24 21:19:11;;;;;;;3.55;1.90;;;19.10;87.10;;;;;;10500178;28;21070;-69
2023/09/24 21:24:12;;;;;;;3.92;2.20;;;19.10;87.30;;;;;;10498205;28;20397;-68
2023/09/24 21:29:13;;;;;;;4.18;1.88;;;19.10;87.10;;;;;;10493859;28;21028;-68
2023/09/24 21:34:14;;;;;;;3.60;1.97;;;19.00;87.20;;;;;;10477922;28;20446;-68
2023/09/24 21:39:14;;;;;;;2.77;1.73;;;19.00;87.10;;;;;;10487519;28;20403;-68
2023/09/24 21:44:15;;;;;;;3.57;1.80;;;18.90;87.30;;;;;;10493051;28;20486;-68
2023/09/24 21:49:18;;;;;;;3.03;1.63;;;18.90;87.20;;;;;;10490618;28;20456;-67
2023/09/24 21:54:21;;;;;;;3.30;1.70;;;18.90;87.30;;;;;;10484908;28;20390;-68
2023/09/24 21:59:22;;;;;;;3.73;1.70;;;18.90;87.40;;;;;;10489095;28;20401;-68
2023/09/24 22:04:23;;;;;;;4.10;1.80;;;18.90;87.40;;;;;;10488311;28;20793;-68
2023/09/24 22:09:23;;;;;;;3.35;1.42;;;18.80;87.40;;;;;;10490809;28;20541;-68
2023/09/24 22:14:24;;;;;;;3.70;1.95;;;18.80;87.60;;;;;;10494860;28;20402;-69
2023/09/24 22:19:24;;;;;;;3.17;1.70;;;18.80;87.60;;;;;;10499489;28;20413;-67
2023/09/24 22:24:29;;;;;;;2.75;1.60;;;18.80;87.60;;;;;;10488382;28;20407;-68
2023/09/24 22:29:30;;;;;;;2.90;1.70;;;18.80;87.60;;;;;;10479056;28;20921;-68
2023/09/24 22:34:31;;;;;;;3.85;1.77;;;18.70;87.60;;;;;;10482894;28;20415;-68
2023/09/24 22:39:32;;;;;;;2.83;1.50;;;18.70;87.60;;;;;;10499553;28;20782;-68
2023/09/24 22:44:32;;;;;;;3.50;1.63;;;18.70;87.60;;;;;;10488083;28;20462;-68
2023/09/24 22:49:33;;;;;;;2.70;1.80;;;18.70;87.60;;;;;;10490767;28;20443;-68
2023/09/24 22:54:35;;;;;;;2.30;1.60;;;18.70;88.20;;;;;;10492410;28;20391;-69
2023/09/24 22:59:35;;;;;;;3.03;1.70;;;18.60;87.70;;;;;;10490219;28;20477;-68
2023/09/24 23:04:36;;;;;;;2.70;1.63;;;18.60;87.70;;;;;;10498291;28;20393;-67
2023/09/24 23:09:37;;;;;;;2.07;1.53;;;18.60;87.80;;;;;;10498411;28;20827;-67
2023/09/24 23:14:37;;;;;;;2.63;1.57;;;18.60;87.70;;;;;;10493960;28;20420;-67
2023/09/24 23:19:40;;;;;;;3.03;1.73;;;18.60;87.80;;;;;;10497945;28;20405;-68
2023/09/24 23:24:41;;;;;;;2.27;1.60;;;18.60;87.80;;;;;;10506488;28;20644;-68
2023/09/24 23:29:41;;;;;;;1.97;1.67;;;18.50;87.80;;;;;;10505870;28;20401;-68
2023/09/24 23:34:42;;;;;;;2.93;1.80;;;18.50;87.80;;;;;;10499128;28;20400;-67
2023/09/24 23:39:43;;;;;;;3.50;1.70;;;18.50;87.70;;;;;;10506268;28;20484;-68
2023/09/24 23:44:43;;;;;;;2.72;1.83;;;18.50;87.80;;;;;;10502513;28;20405;-67
2023/09/24 23:49:45;;;;;;;3.53;1.53;;;18.50;87.90;;;;;;10499556;28;20493;-68
2023/09/24 23:54:45;;;;;;;2.75;1.70;;;18.40;87.80;;;;;;10499470;28;20397;-68
2023/09/24 23:59:46;;;;;;;2.57;1.80;;;18.40;87.70;;;;;;10501012;28;20410;-67
